Time;durP1;ratioP1;P1;durP2;ratioP2;P2;SDS_P1;SDS_P2;PMS_P1;PMS_P2;Temp;Humidity;BMP_temperature;BMP_pressure;BME280_temperature;BME280_humidity;BME280_pressure;Samples;Min_cycle;Max_cycle;Signal;HPM_P1;HPM_P2
2022/04/24 00:02:49;;;;;;;16.90;12.73;;;;;;;9.64;86.19;96361.69;6140262;28;20230;-86
2022/04/24 00:05:51;;;;;;;12.43;11.13;;;;;;;9.63;86.45;96360.88;6155339;28;20290;-85
2022/04/24 00:08:53;;;;;;;13.90;11.50;;;;;;;9.63;86.23;96354.78;6155022;28;20318;-85
2022/04/24 00:11:55;;;;;;;18.47;15.57;;;;;;;9.62;86.83;96351.31;6154843;28;20240;-85
2022/04/24 00:14:57;;;;;;;18.60;15.00;;;;;;;9.61;87.04;96349.66;6154685;28;20229;-85
2022/04/24 00:17:59;;;;;;;22.40;18.63;;;;;;;9.61;86.62;96348.81;6154578;28;20369;-86
2022/04/24 00:21:01;;;;;;;15.33;13.67;;;;;;;9.62;87.08;96347.84;6139437;28;20236;-86
2022/04/24 00:24:03;;;;;;;15.50;13.83;;;;;;;9.61;87.25;96328.56;6153394;28;20200;-85
2022/04/24 00:27:07;;;;;;;14.33;12.67;;;;;;;9.60;86.84;96318.19;6163493;28;20225;-86
2022/04/24 00:30:09;;;;;;;20.33;16.07;;;;;;;9.55;87.29;96302.84;6155109;28;20698;-86
2022/04/24 00:33:11;;;;;;;23.63;18.47;;;;;;;9.51;87.20;96319.09;6155308;28;20701;-85
2022/04/24 00:36:13;;;;;;;16.90;13.77;;;;;;;9.47;87.43;96312.47;6137829;28;20553;-85
2022/04/24 00:39:16;;;;;;;13.33;11.77;;;;;;;9.42;87.53;96320.81;6139341;28;20766;-86
2022/04/24 00:42:18;;;;;;;11.70;10.50;;;;;;;9.42;87.62;96320.81;6146662;28;20268;-85
2022/04/24 00:45:21;;;;;;;10.83;9.77;;;;;;;9.40;87.56;96314.88;6148252;28;20699;-85
2022/04/24 00:48:29;;;;;;;12.03;10.70;;;;;;;9.39;87.32;96321.09;6137218;28;20249;-85
2022/04/24 00:51:44;;;;;;;11.30;10.17;;;;;;;9.38;87.22;96314.22;6140653;28;20223;-86
2022/04/24 00:54:46;;;;;;;9.60;8.67;;;;;;;9.40;87.40;96319.31;6154877;28;20308;-85
2022/04/24 00:57:49;;;;;;;10.80;9.70;;;;;;;9.42;87.25;96309.44;6153841;28;20226;-85
2022/04/24 01:00:52;;;;;;;10.60;9.50;;;;;;;9.43;86.95;96314.56;6138335;28;20230;-85
2022/04/24 01:04:00;;;;;;;12.70;11.13;;;;;;;9.43;86.96;96308.47;6134866;28;20289;-85
2022/04/24 01:07:02;;;;;;;11.30;10.20;;;;;;;9.41;87.08;96290.19;6138509;28;20609;-85
2022/04/24 01:10:05;;;;;;;11.40;10.07;;;;;;;9.40;87.20;96290.34;6156799;28;20320;-85
2022/04/24 01:13:08;;;;;;;10.53;9.43;;;;;;;9.40;87.27;96272.75;6156201;28;20317;-86
2022/04/24 01:16:10;;;;;;;10.10;9.07;;;;;;;9.42;87.09;96283.13;6158376;28;20276;-86
2022/04/24 01:19:13;;;;;;;9.47;8.57;;;;;;;9.42;86.97;96278.69;6156595;28;20234;-86
2022/04/24 01:22:18;;;;;;;9.83;8.87;;;;;;;9.45;87.01;96282.84;6154901;28;20841;-85
2022/04/24 01:25:20;;;;;;;9.93;8.70;;;;;;;9.44;87.50;96281.19;6156818;28;20225;-86
2022/04/24 01:28:21;;;;;;;12.53;10.60;;;;;;;9.44;87.53;96266.19;6140015;28;20245;-86
2022/04/24 01:31:23;;;;;;;12.10;10.20;;;;;;;9.40;87.21;96256.09;6131546;28;20342;-86
2022/04/24 01:34:26;;;;;;;14.93;12.80;;;;;;;9.38;87.78;96255.47;6143620;28;20261;-85
2022/04/24 01:37:28;;;;;;;13.00;11.50;;;;;;;9.38;87.06;96248.38;6154798;28;20575;-86
2022/04/24 01:40:30;;;;;;;13.33;11.93;;;;;;;9.39;87.54;96247.38;6155004;28;20233;-86
2022/04/24 01:43:32;;;;;;;10.93;9.83;;;;;;;9.41;87.90;96252.50;6155636;28;20230;-86
2022/04/24 01:46:34;;;;;;;14.77;11.03;;;;;;;9.40;87.44;96246.41;6138433;28;20313;-86
2022/04/24 01:49:36;;;;;;;14.97;13.37;;;;;;;9.39;87.49;96228.94;6133836;28;20239;-86
2022/04/24 01:52:38;;;;;;;13.97;11.83;;;;;;;9.33;87.69;96234.84;6135863;28;20369;-86
2022/04/24 01:55:40;;;;;;;13.13;11.73;;;;;;;9.33;88.08;96240.09;6139717;28;20316;-86
2022/04/24 01:58:42;;;;;;;12.13;10.70;;;;;;;9.30;87.54;96253.56;6156900;28;20238;-86
2022/04/24 02:01:44;;;;;;;11.47;10.27;;;;;;;9.29;87.72;96238.72;6158055;28;20331;-86
2022/04/24 02:04:46;;;;;;;14.53;12.83;;;;;;;9.30;87.59;96227.22;6174523;28;20464;-86
2022/04/24 02:07:48;;;;;;;15.60;13.80;;;;;;;9.32;87.90;96212.13;6157663;28;20249;-86
2022/04/24 02:10:50;;;;;;;12.77;11.43;;;;;;;9.32;87.58;96206.03;6158329;28;20253;-86
2022/04/24 02:13:52;;;;;;;13.93;12.27;;;;;;;9.30;87.71;96207.97;6174651;28;20301;-86
2022/04/24 02:16:54;;;;;;;13.33;11.93;;;;;;;9.26;87.69;96202.19;6155249;28;20625;-85
2022/04/24 02:19:56;;;;;;;13.20;11.70;;;;;;;9.23;87.78;96205.13;6158000;28;20236;-86
2022/04/24 02:22:58;;;;;;;13.57;11.27;;;;;;;9.20;87.61;96203.63;6143861;28;20332;-86
2022/04/24 02:26:00;;;;;;;13.33;11.63;;;;;;;9.18;87.68;96197.66;6136123;28;20236;-86
2022/04/24 02:29:02;;;;;;;11.80;10.60;;;;;;;9.14;87.83;96177.91;6147499;28;20232;-86
2022/04/24 02:32:04;;;;;;;12.77;11.27;;;;;;;9.09;88.69;96193.31;6158788;28;20226;-86
2022/04/24 02:35:09;;;;;;;10.80;9.70;;;;;;;9.06;88.61;96177.84;6157019;28;20323;-85
2022/04/24 02:38:17;;;;;;;18.70;14.17;;;;;;;9.04;88.32;96186.84;6158237;28;20787;-85
2022/04/24 02:41:28;;;;;;;12.03;10.83;;;;;;;8.97;88.22;96186.63;6157761;28;20257;-85
2022/04/24 02:44:35;;;;;;;11.10;9.63;;;;;;;8.91;88.37;96189.03;6157458;28;20354;-86
2022/04/24 02:47:40;;;;;;;12.27;10.97;;;;;;;8.85;88.39;96180.75;6158153;28;20238;-86
2022/04/24 02:50:42;;;;;;;11.97;10.50;;;;;;;8.78;88.16;96179.69;6157528;28;20333;-86
2022/04/24 02:53:44;;;;;;;16.60;13.87;;;;;;;8.72;88.02;96161.88;6150288;28;20688;-86
2022/04/24 02:56:46;;;;;;;12.30;11.00;;;;;;;8.60;88.40;96178.00;6152815;28;20226;-86
2022/04/24 02:59:49;;;;;;;13.00;11.60;;;;;;;8.54;88.72;96165.47;6156617;28;20238;-85
2022/04/24 03:02:52;;;;;;;13.43;11.47;;;;;;;8.50;88.40;96157.03;6156420;28;20235;-85
2022/04/24 03:05:54;;;;;;;8.70;7.90;;;;;;;8.44;88.46;96157.63;6140684;28;20539;-86
2022/04/24 03:08:56;;;;;;;13.50;11.97;;;;;;;8.41;88.34;96156.13;6172661;28;20264;-86
2022/04/24 03:11:59;;;;;;;14.47;11.97;;;;;;;8.38;89.14;96147.72;6157821;28;20240;-86
2022/04/24 03:15:02;;;;;;;15.93;12.73;;;;;;;8.33;88.33;96147.31;6140051;28;20882;-86
2022/04/24 03:18:05;;;;;;;13.03;11.63;;;;;;;8.33;88.51;96126.28;6156135;28;20317;-86
2022/04/24 03:21:07;;;;;;;13.50;12.10;;;;;;;8.33;89.10;96115.78;6149411;28;20224;-86
2022/04/24 03:24:09;;;;;;;11.73;10.53;;;;;;;8.26;88.43;96125.22;6159458;28;20257;-86
2022/04/24 03:27:11;;;;;;;12.70;11.30;;;;;;;8.22;88.94;96098.38;6169826;28;20744;-85
2022/04/24 03:30:13;;;;;;;17.03;12.23;;;;;;;8.18;88.48;96101.47;6160863;28;20690;-86
2022/04/24 03:33:17;;;;;;;16.17;13.30;;;;;;;8.14;88.73;96114.06;6161656;28;20234;-85
2022/04/24 03:36:19;;;;;;;13.10;11.50;;;;;;;8.10;88.61;96113.53;6156129;28;20221;-86
2022/04/24 03:39:21;;;;;;;16.30;14.37;;;;;;;8.03;88.79;96107.19;6156090;28;20623;-85
2022/04/24 03:42:25;;;;;;;16.87;13.80;;;;;;;7.94;88.85;96108.06;6140509;28;20229;-85
2022/04/24 03:45:27;;;;;;;14.07;11.97;;;;;;;7.83;89.10;96103.00;6139229;28;20229;-85
2022/04/24 03:48:29;;;;;;;14.00;12.17;;;;;;;7.72;88.96;96104.03;6155581;28;20873;-85
2022/04/24 03:51:31;;;;;;;18.53;14.53;;;;;;;7.64;89.16;96100.47;6139935;28;20236;-85
2022/04/24 03:54:33;;;;;;;15.77;12.97;;;;;;;7.50;89.27;96101.75;6159060;28;20318;-85
2022/04/24 03:57:35;;;;;;;18.00;14.60;;;;;;;7.46;89.41;96095.16;6155744;28;20223;-85
2022/04/24 04:00:37;;;;;;;20.23;15.13;;;;;;;7.37;89.55;96104.72;6155883;28;20595;-85
2022/04/24 04:03:39;;;;;;;22.40;16.80;;;;;;;7.31;89.27;96104.41;6157124;28;20225;-85
2022/04/24 04:06:41;;;;;;;17.90;15.57;;;;;;;7.26;89.00;96086.50;6170925;28;20298;-85
2022/04/24 04:09:43;;;;;;;19.40;15.87;;;;;;;7.22;89.21;96079.88;6138609;28;20231;-84
2022/04/24 04:12:45;;;;;;;19.73;15.97;;;;;;;7.10;89.09;96081.00;6154570;28;20367;-85
2022/04/24 04:15:47;;;;;;;21.40;15.97;;;;;;;7.04;89.17;96074.53;6157495;28;20224;-85
2022/04/24 04:18:49;;;;;;;16.87;14.27;;;;;;;7.04;89.19;96068.44;6154850;28;20713;-85
2022/04/24 04:21:51;;;;;;;23.67;18.90;;;;;;;7.04;89.57;96063.22;6154867;28;20229;-85
2022/04/24 04:24:53;;;;;;;20.70;17.07;;;;;;;6.99;89.01;96071.47;6154402;28;20231;-85
2022/04/24 04:27:56;;;;;;;24.57;18.97;;;;;;;6.98;89.33;96074.28;6154646;28;20228;-85
2022/04/24 04:30:58;;;;;;;25.97;19.27;;;;;;;6.96;89.19;96071.78;6138795;28;20302;-85
2022/04/24 04:34:00;;;;;;;32.67;24.47;;;;;;;6.98;89.05;96077.72;6153353;28;20299;-85
2022/04/24 04:37:02;;;;;;;42.37;30.47;;;;;;;6.97;89.17;96070.81;6130608;28;20235;-86
2022/04/24 04:40:05;;;;;;;57.73;41.53;;;;;;;6.97;88.94;96068.19;6138305;28;20757;-85
2022/04/24 04:43:07;;;;;;;65.47;43.47;;;;;;;6.99;88.98;96061.00;6155374;28;20645;-85
2022/04/24 04:46:09;;;;;;;75.07;49.47;;;;;;;7.06;88.87;96061.28;6130937;28;20746;-85
2022/04/24 04:49:11;;;;;;;71.00;46.13;;;;;;;7.16;88.90;96063.88;6139098;28;20688;-85
2022/04/24 04:52:13;;;;;;;39.67;29.13;;;;;;;7.27;88.18;96059.28;6155835;28;20247;-85
2022/04/24 04:55:15;;;;;;;25.57;19.07;;;;;;;7.71;89.58;96049.84;6132522;28;20227;-86
2022/04/24 04:58:17;;;;;;;23.40;18.60;;;;;;;7.89;89.13;96036.75;6136606;28;20234;-85
2022/04/24 05:01:19;;;;;;;21.63;14.93;;;;;;;8.03;88.85;96048.59;6129681;28;20327;-86
2022/04/24 05:04:22;;;;;;;17.87;14.90;;;;;;;8.22;88.84;96032.69;6156057;28;20236;-86
2022/04/24 05:07:24;;;;;;;13.57;10.53;;;;;;;8.51;88.27;96025.44;6158120;28;20247;-85
2022/04/24 05:10:26;;;;;;;12.70;9.80;;;;;;;8.68;87.82;96026.41;6154685;28;20362;-88
2022/04/24 05:13:29;;;;;;;9.33;7.63;;;;;;;8.89;87.12;96007.66;6130439;28;20700;-84
2022/04/24 05:16:31;;;;;;;15.10;8.33;;;;;;;9.06;86.23;96012.06;6142751;28;20300;-85
2022/04/24 05:19:33;;;;;;;10.73;7.60;;;;;;;9.12;85.50;96005.34;6152175;28;20697;-86
2022/04/24 05:22:35;;;;;;;8.37;6.17;;;;;;;9.29;84.72;95993.91;6141721;28;20758;-86
2022/04/24 05:25:37;;;;;;;6.20;5.60;;;;;;;9.41;84.18;95997.94;6151553;28;20328;-86
2022/04/24 05:28:39;;;;;;;7.23;5.73;;;;;;;9.48;83.98;96008.69;6159782;28;20243;-86
2022/04/24 05:31:41;;;;;;;8.93;6.03;;;;;;;9.55;84.23;96001.78;6142536;28;20318;-86
2022/04/24 05:34:43;;;;;;;7.57;5.73;;;;;;;9.65;84.20;96014.84;6159881;28;20236;-86
2022/04/24 05:37:46;;;;;;;7.17;5.40;;;;;;;9.79;83.59;96011.59;6160056;28;20369;-86
2022/04/24 05:40:48;;;;;;;7.70;5.20;;;;;;;9.96;83.14;96002.78;6158456;28;21920;-86
2022/04/24 05:43:54;;;;;;;5.73;4.13;;;;;;;10.18;80.94;96023.25;6142967;28;20375;-86
2022/04/24 05:47:05;;;;;;;5.57;4.23;;;;;;;10.36;80.39;96017.88;6145200;28;20312;-84
2022/04/24 05:50:07;;;;;;;4.23;3.83;;;;;;;10.58;79.25;96014.59;6158591;28;20233;-86
2022/04/24 05:53:09;;;;;;;4.33;3.53;;;;;;;10.76;78.59;96014.47;6147812;28;20772;-87
2022/04/24 05:56:11;;;;;;;4.43;3.60;;;;;;;10.91;77.45;96012.78;6140225;28;20236;-86
2022/04/24 05:59:13;;;;;;;3.30;3.00;;;;;;;11.08;75.51;95995.94;6157394;28;20237;-85
2022/04/24 06:02:16;;;;;;;3.20;2.73;;;;;;;11.21;71.65;95991.94;6157617;28;20223;-94
2022/04/24 06:05:18;;;;;;;5.90;2.97;;;;;;;11.34;72.19;95990.44;6158160;28;20225;-86
2022/04/24 06:08:20;;;;;;;4.13;2.80;;;;;;;11.42;71.68;95974.56;6142713;28;20226;-85
2022/04/24 06:11:22;;;;;;;3.50;2.50;;;;;;;11.51;71.49;95983.28;6159679;28;20239;-86
2022/04/24 06:14:25;;;;;;;2.90;2.50;;;;;;;11.55;71.61;95968.75;6158246;28;20748;-86
2022/04/24 06:17:27;;;;;;;5.10;2.33;;;;;;;11.61;70.57;95960.13;6137691;28;20239;-85
2022/04/24 06:20:29;;;;;;;4.87;2.57;;;;;;;11.62;70.72;95961.78;6157888;28;20239;-86
2022/04/24 06:23:31;;;;;;;3.53;2.33;;;;;;;11.63;71.43;95974.00;6145395;28;20223;-86
2022/04/24 06:26:33;;;;;;;3.13;2.10;;;;;;;11.61;70.36;95968.06;6163291;28;20231;-86
2022/04/24 06:29:35;;;;;;;5.20;2.10;;;;;;;11.65;70.63;95976.47;6141089;28;20228;-86
2022/04/24 06:32:39;;;;;;;5.37;2.53;;;;;;;11.75;68.52;95966.56;6173362;28;20227;-86
2022/04/24 06:35:45;;;;;;;3.07;2.20;;;;;;;11.87;69.61;95961.72;6141844;28;20282;-83
2022/04/24 06:38:54;;;;;;;5.97;2.00;;;;;;;11.91;69.69;95945.31;6149941;28;20313;-86
2022/04/24 06:41:56;;;;;;;2.57;1.80;;;;;;;11.95;68.02;95943.97;6131870;28;20318;-85
2022/04/24 06:44:58;;;;;;;2.70;1.73;;;;;;;12.05;67.77;95949.03;6156773;28;20404;-86
2022/04/24 06:48:04;;;;;;;3.50;2.10;;;;;;;12.09;67.81;95931.81;6133653;28;20238;-85
2022/04/24 06:51:07;;;;;;;4.00;1.90;;;;;;;12.09;67.86;95939.75;6144008;28;20545;-85
2022/04/24 06:54:08;;;;;;;4.50;2.13;;;;;;;12.12;68.56;95921.72;6155817;28;20238;-85
2022/04/24 06:57:12;;;;;;;3.40;1.90;;;;;;;12.18;68.91;95938.69;6152402;28;20284;-89
2022/04/24 07:00:16;;;;;;;4.00;2.00;;;;;;;12.21;67.92;95925.13;6134671;28;20216;-90
2022/04/24 07:03:21;;;;;;;6.00;1.80;;;;;;;12.24;67.98;95918.66;6142452;28;20232;-84
2022/04/24 07:06:24;;;;;;;4.63;2.20;;;;;;;12.32;68.09;95918.59;6140677;28;20589;-86
2022/04/24 07:09:27;;;;;;;2.30;1.70;;;;;;;12.36;67.19;95933.13;6138790;28;20230;-83
2022/04/24 07:12:29;;;;;;;2.67;1.73;;;;;;;12.33;67.01;95933.47;6156920;28;20758;-83
2022/04/24 07:15:36;;;;;;;5.23;2.20;;;;;;;12.32;67.76;95945.06;6139025;28;20372;-83
2022/04/24 07:18:38;;;;;;;5.70;1.77;;;;;;;12.23;67.69;95944.28;6132327;28;20253;-84
2022/04/24 07:21:41;;;;;;;4.57;2.00;;;;;;;12.25;69.13;95958.19;6157061;28;20731;-86
2022/04/24 07:24:43;;;;;;;2.87;1.93;;;;;;;12.27;67.71;95950.06;6137130;28;20236;-86
2022/04/24 07:27:46;;;;;;;11.17;2.17;;;;;;;12.34;66.98;95949.19;6164485;28;20239;-86
2022/04/24 07:30:48;;;;;;;3.07;1.40;;;;;;;12.46;67.33;95945.13;6139350;28;20246;-86
2022/04/24 07:33:50;;;;;;;3.23;1.70;;;;;;;12.52;67.42;95946.22;6139377;28;20651;-87
2022/04/24 07:36:52;;;;;;;5.97;2.17;;;;;;;12.58;66.63;95945.50;6154154;28;20247;-84
2022/04/24 07:39:54;;;;;;;3.13;1.80;;;;;;;12.64;66.24;95952.75;6154974;28;20339;-84
2022/04/24 07:42:58;;;;;;;7.43;1.80;;;;;;;12.72;65.75;95952.69;6155171;28;20331;-85
2022/04/24 07:46:00;;;;;;;3.60;1.60;;;;;;;12.84;65.05;95950.44;6138118;28;20319;-84
2022/04/24 07:49:02;;;;;;;5.10;1.77;;;;;;;13.02;65.30;95952.72;6155962;28;20247;-86
2022/04/24 07:52:04;;;;;;;4.23;1.60;;;;;;;13.18;64.85;95961.34;6154803;28;20244;-86
2022/04/24 07:55:07;;;;;;;3.10;1.70;;;;;;;13.27;64.97;95952.34;6156285;28;20704;-86
2022/04/24 07:58:10;;;;;;;5.33;2.00;;;;;;;13.30;65.04;95956.44;6156229;28;20694;-86
2022/04/24 08:01:16;;;;;;;4.00;1.83;;;;;;;13.38;65.50;95953.69;6130606;28;20278;-86
2022/04/24 08:04:18;;;;;;;5.23;1.70;;;;;;;13.56;64.43;95970.06;6151361;28;20381;-86
2022/04/24 08:07:28;;;;;;;3.33;1.73;;;;;;;13.76;64.20;95972.97;6281633;27;20671;-42
2022/04/24 08:10:33;;;;;;;4.93;1.70;;;;;;;13.92;63.72;95980.72;6223913;28;20706;-42
2022/04/24 08:13:35;;;;;;;1.70;1.30;;;;;;;14.05;63.29;95972.13;6224642;28;20809;-43
2022/04/24 08:16:37;;;;;;;3.70;1.53;;;;;;;14.13;64.58;95965.88;6225545;28;20230;-43
2022/04/24 08:19:39;;;;;;;4.00;1.70;;;;;;;14.21;63.42;95958.59;6214527;28;20297;-44
2022/04/24 08:22:42;;;;;;;6.27;2.00;;;;;;;14.35;62.83;95963.06;6222869;28;20758;-42
2022/04/24 08:25:45;;;;;;;4.83;1.63;;;;;;;14.36;62.42;95969.19;6208381;28;20635;-42
2022/04/24 08:28:47;;;;;;;3.80;1.60;;;;;;;14.55;61.50;95970.44;6223618;28;20228;-42
2022/04/24 08:31:49;;;;;;;3.53;1.50;;;;;;;14.66;61.97;95968.09;6224964;28;20397;-41
2022/04/24 08:34:51;;;;;;;4.77;1.90;;;;;;;14.69;61.87;95957.06;6225542;28;20318;-43
2022/04/24 08:37:54;;;;;;;6.63;2.00;;;;;;;14.68;60.85;95976.66;6221847;28;20227;-42
2022/04/24 08:41:00;;;;;;;7.03;2.17;;;;;;;14.69;61.31;95975.66;6225336;28;20615;-43
2022/04/24 08:44:06;;;;;;;3.30;1.67;;;;;;;14.65;61.13;95982.38;6224387;28;20718;-41
2022/04/24 08:47:09;;;;;;;6.23;1.80;;;;;;;14.60;62.76;95982.09;6223028;28;20220;-43
2022/04/24 08:50:12;;;;;;;6.30;1.73;;;;;;;14.50;62.21;95978.13;6221005;28;20275;-42
2022/04/24 08:53:15;;;;;;;3.07;1.60;;;;;;;14.47;62.11;95967.91;6226380;28;20230;-41
2022/04/24 08:56:17;;;;;;;5.17;1.97;;;;;;;14.46;62.76;95963.59;6228445;28;20231;-42
2022/04/24 08:59:19;;;;;;;5.37;1.70;;;;;;;14.50;62.74;95967.50;6225838;28;20231;-42
2022/04/24 09:02:22;;;;;;;5.43;1.70;;;;;;;14.57;62.40;95981.69;6222409;28;20220;-42
2022/04/24 09:05:25;;;;;;;3.77;1.73;;;;;;;14.72;62.60;95963.84;6223121;28;20346;-43
2022/04/24 09:08:28;;;;;;;3.30;1.60;;;;;;;14.76;63.68;95973.09;6216651;28;20224;-42
2022/04/24 09:11:51;;;;;;;3.43;1.57;;;;;;;14.77;61.42;95962.25;6216817;28;20239;-44
2022/04/24 09:14:55;;;;;;;4.00;2.03;;;;;;;14.85;60.44;95966.63;6220457;28;20223;-42
2022/04/24 09:18:01;;;;;;;3.60;1.80;;;;;;;15.01;60.91;95963.69;6209195;28;20829;-43
2022/04/24 09:21:12;;;;;;;5.17;1.70;;;;;;;15.05;60.41;95942.88;6205067;28;20317;-41
2022/04/24 09:24:15;;;;;;;3.23;1.33;;;;;;;15.18;59.91;95942.13;6204190;28;20617;-42
2022/04/24 09:27:32;;;;;;;3.63;1.70;;;;;;;15.27;59.99;95933.00;6205949;28;20263;-42
2022/04/24 09:30:36;;;;;;;3.37;1.40;;;;;;;15.21;59.79;95939.06;6208912;28;20730;-42
2022/04/24 09:33:40;;;;;;;7.07;1.70;;;;;;;15.33;59.58;95933.03;6230604;28;20220;-42
2022/04/24 09:36:46;;;;;;;3.93;1.27;;;;;;;15.70;59.25;95941.63;6230288;28;20370;-42
2022/04/24 09:39:50;;;;;;;4.37;1.20;;;;;;;16.04;58.36;95938.09;6223660;28;20224;-43
2022/04/24 09:42:56;;;;;;;7.97;1.80;;;;;;;16.23;58.54;95929.34;6203684;28;20220;-43
2022/04/24 09:45:58;;;;;;;5.27;1.60;;;;;;;16.19;56.95;95947.56;6201451;28;20592;-42
2022/04/24 09:49:02;;;;;;;5.83;1.53;;;;;;;16.19;57.46;95934.25;6206004;28;20286;-43
2022/04/24 09:52:11;;;;;;;4.20;1.47;;;;;;;16.14;57.53;95934.03;6205741;28;20224;-43
2022/04/24 09:55:14;;;;;;;10.07;1.90;;;;;;;16.02;57.88;95940.97;6205922;28;20575;-42
2022/04/24 09:58:18;;;;;;;6.30;1.40;;;;;;;15.85;57.94;95939.69;6205705;28;20233;-42
2022/04/24 10:01:22;;;;;;;5.77;1.27;;;;;;;15.73;58.06;95936.75;6205211;28;20236;-43
2022/04/24 10:04:24;;;;;;;7.17;1.67;;;;;;;16.24;57.37;95961.09;6202440;28;20221;-42
2022/04/24 10:07:28;;;;;;;5.90;1.57;;;;;;;17.69;53.55;95965.69;6199448;28;20271;-43
2022/04/24 10:10:30;;;;;;;4.10;1.50;;;;;;;18.87;49.60;95963.47;6202797;28;20327;-43
2022/04/24 10:13:41;;;;;;;2.67;1.33;;;;;;;19.35;45.52;95974.44;6205171;28;20255;-44
2022/04/24 10:17:17;;;;;;;4.73;1.20;;;;;;;20.16;46.53;95958.94;6203384;28;20236;-43
2022/04/24 10:20:48;;;;;;;2.63;1.33;;;;;;;21.24;43.46;95948.16;6200623;28;20220;-43
2022/04/24 10:23:51;;;;;;;5.17;1.20;;;;;;;20.46;43.10;95937.56;6201248;28;20595;-44
2022/04/24 10:26:57;;;;;;;5.70;1.20;;;;;;;19.75;43.56;95929.38;6204669;28;20599;-44
2022/04/24 10:30:00;;;;;;;3.50;1.10;;;;;;;18.73;46.79;95931.53;6202161;28;20227;-44
2022/04/24 10:33:15;;;;;;;2.80;1.00;;;;;;;18.55;45.50;95927.94;6203951;28;20224;-45
2022/04/24 10:36:17;;;;;;;3.10;1.10;;;;;;;18.31;47.33;95930.31;6201697;28;20228;-44
2022/04/24 10:39:22;;;;;;;1.10;0.83;;;;;;;18.39;47.04;95924.72;6205152;28;20196;-43
2022/04/24 10:42:35;;;;;;;5.20;1.10;;;;;;;18.53;45.95;95938.00;6207818;28;20277;-44
2022/04/24 10:45:45;;;;;;;3.50;1.00;;;;;;;18.71;45.83;95946.94;6221160;28;20236;-43
2022/04/24 10:48:51;;;;;;;4.07;1.23;;;;;;;18.96;43.82;95946.16;6206058;28;20233;-45
2022/04/24 10:52:04;;;;;;;2.43;1.00;;;;;;;19.26;43.16;95938.31;6209509;28;20231;-44
2022/04/24 10:55:08;;;;;;;2.90;1.00;;;;;;;19.49;42.80;95938.50;6216911;28;20249;-42
2022/04/24 10:58:10;;;;;;;1.20;0.70;;;;;;;19.55;41.86;95929.59;6203048;28;20232;-43
2022/04/24 11:01:15;;;;;;;1.37;0.80;;;;;;;19.50;41.48;95919.56;6203080;28;20415;-44
2022/04/24 11:04:18;;;;;;;4.43;1.60;;;;;;;19.60;41.35;95912.88;6199104;28;20754;-44
2022/04/24 11:07:21;;;;;;;2.30;1.10;;;;;;;20.27;38.84;95923.34;6200245;28;20303;-42
2022/04/24 11:10:23;;;;;;;2.53;1.33;;;;;;;21.24;38.78;95920.50;6201616;28;20233;-42
2022/04/24 11:13:26;;;;;;;1.67;0.90;;;;;;;21.98;37.25;95921.63;6202349;28;20319;-42
2022/04/24 11:16:28;;;;;;;2.43;1.10;;;;;;;22.49;35.67;95911.84;6197035;28;20220;-42
2022/04/24 11:19:32;;;;;;;1.00;0.70;;;;;;;22.88;35.30;95899.38;6209561;28;20570;-44
2022/04/24 11:22:55;;;;;;;0.67;0.60;;;;;;;22.87;30.38;95898.56;6225483;28;20223;-43
2022/04/24 11:25:59;;;;;;;1.53;0.80;;;;;;;23.30;31.63;95897.09;6208742;28;20233;-42
2022/04/24 11:29:09;;;;;;;1.33;0.70;;;;;;;23.86;29.26;95890.63;6203607;28;20240;-43
2022/04/24 11:32:13;;;;;;;2.40;0.70;;;;;;;22.84;31.49;95898.25;6200275;28;20231;-43
2022/04/24 11:35:15;;;;;;;1.67;0.70;;;;;;;22.24;33.20;95907.66;6199103;28;20225;-43
2022/04/24 11:38:18;;;;;;;2.57;0.63;;;;;;;21.89;33.94;95923.00;6197347;28;20216;-43
2022/04/24 11:41:26;;;;;;;2.20;0.70;;;;;;;21.98;34.25;95935.03;6195842;28;20227;-42
2022/04/24 11:51:41;;;;;;;2.20;2.00;;;;;;;20.65;39.51;95970.50;6203144;28;20220;-43
2022/04/24 11:54:45;;;;;;;4.00;2.37;;;;;;;20.98;38.98;95967.31;6209663;28;20219;-43
2022/04/24 11:57:58;;;;;;;4.03;2.60;;;;;;;21.99;38.16;95990.41;6221795;28;20319;-43
2022/04/24 12:01:02;;;;;;;2.83;2.43;;;;;;;22.44;38.56;95983.31;6201513;28;20267;-43
2022/04/24 12:04:05;;;;;;;3.57;2.00;;;;;;;22.80;37.77;95984.00;6210409;28;20285;-42
2022/04/24 12:07:08;;;;;;;3.43;2.20;;;;;;;23.01;36.29;95991.38;6217554;28;20699;-44
2022/04/24 12:10:11;;;;;;;1.80;1.70;;;;;;;22.99;35.06;96011.50;6201882;28;20716;-45
2022/04/24 12:13:15;;;;;;;2.97;2.17;;;;;;;22.68;35.38;96026.22;6202391;28;20217;-44
2022/04/24 12:16:23;;;;;;;2.60;2.20;;;;;;;22.50;37.05;96046.06;6200812;28;21143;-44
2022/04/24 12:19:26;;;;;;;2.33;1.83;;;;;;;22.48;35.58;96050.84;6201083;28;20232;-43
2022/04/24 12:22:37;;;;;;;3.00;2.20;;;;;;;22.26;36.76;96037.22;6201198;28;20235;-42
2022/04/24 12:25:50;;;;;;;1.60;1.50;;;;;;;22.47;35.48;96019.63;6198374;28;20315;-43
2022/04/24 12:29:05;;;;;;;1.90;1.80;;;;;;;22.88;34.77;96009.69;6215642;28;20224;-42
2022/04/24 12:32:12;;;;;;;2.13;1.77;;;;;;;23.62;33.42;96022.03;6208328;28;20239;-44
2022/04/24 12:35:27;;;;;;;2.50;2.10;;;;;;;24.08;31.12;96037.00;6199579;28;20767;-45
2022/04/24 12:38:29;;;;;;;2.20;2.00;;;;;;;23.93;31.84;96015.25;6202032;28;20680;-44
2022/04/24 12:41:33;;;;;;;2.47;1.73;;;;;;;24.92;30.79;96007.91;6198152;28;20224;-44
2022/04/24 12:44:35;;;;;;;1.77;1.63;;;;;;;25.40;30.75;95999.97;6202544;28;20778;-42
2022/04/24 12:47:38;;;;;;;1.53;1.43;;;;;;;25.26;29.38;96000.38;6200003;28;20236;-43
2022/04/24 12:50:40;;;;;;;2.72;1.67;;;;;;;25.68;29.83;95997.78;6201545;28;20332;-40
2022/04/24 12:53:42;;;;;;;1.63;1.30;;;;;;;25.65;29.00;96002.91;6206639;28;20723;-42
2022/04/24 12:56:44;;;;;;;1.67;1.10;;;;;;;25.83;28.44;96002.50;6206676;28;20691;-42
2022/04/24 12:59:46;;;;;;;1.10;1.00;;;;;;;26.20;28.08;95996.19;6206280;28;20357;-41
2022/04/24 13:02:49;;;;;;;1.17;1.00;;;;;;;26.81;26.46;95991.88;6202773;28;20232;-40
2022/04/24 13:05:52;;;;;;;0.80;0.80;;;;;;;26.63;26.89;95990.47;6206823;28;20225;-41
2022/04/24 13:08:59;;;;;;;1.45;1.20;;;;;;;25.82;25.94;95995.44;6206262;28;20707;-40
2022/04/24 13:12:02;;;;;;;0.80;0.80;;;;;;;26.49;25.85;96005.56;6202979;28;20247;-43
2022/04/24 13:15:05;;;;;;;1.40;0.93;;;;;;;26.77;25.28;95997.00;6210675;28;20840;-42
2022/04/24 13:18:07;;;;;;;1.48;1.10;;;;;;;26.80;25.52;95996.47;6200862;28;20219;-44
2022/04/24 13:21:10;;;;;;;1.30;0.90;;;;;;;27.74;26.58;96008.84;6225020;28;20704;-41
2022/04/24 13:24:13;;;;;;;1.30;0.80;;;;;;;27.84;25.63;95997.16;6196437;28;20224;-42
2022/04/24 13:27:15;;;;;;;0.77;0.70;;;;;;;27.23;24.32;96002.56;6196090;28;20692;-43
2022/04/24 13:30:18;;;;;;;0.70;0.70;;;;;;;27.44;25.01;96006.09;6204419;28;20252;-43
2022/04/24 13:33:21;;;;;;;0.50;0.50;;;;;;;28.21;22.13;95994.13;6205022;28;20673;-45
2022/04/24 13:36:25;;;;;;;1.38;0.55;;;;;;;28.72;21.70;95997.47;6206576;28;20229;-43
2022/04/24 13:39:27;;;;;;;1.05;0.60;;;;;;;29.23;21.26;95989.84;6206242;28;20635;-44
2022/04/24 13:42:29;;;;;;;1.33;0.55;;;;;;;29.98;20.02;95992.25;6206818;28;20307;-44
2022/04/24 13:45:36;;;;;;;0.50;0.50;;;;;;;31.40;19.16;95993.22;6206870;28;20741;-43
2022/04/24 13:48:57;;;;;;;0.75;0.65;;;;;;;33.02;17.76;95994.91;6206145;28;20254;-43
2022/04/24 13:52:01;;;;;;;0.45;0.40;;;;;;;34.34;16.88;95990.59;6207260;28;20232;-42
2022/04/24 13:55:05;;;;;;;0.60;0.43;;;;;;;35.51;14.53;95993.47;6206713;28;20296;-41
2022/04/24 13:58:07;;;;;;;0.60;0.60;;;;;;;36.22;13.77;95979.31;6205840;28;20769;-44
2022/04/24 14:01:09;;;;;;;0.50;0.50;;;;;;;36.76;13.91;95971.31;6205838;28;20251;-43
2022/04/24 14:04:12;;;;;;;1.25;0.43;;;;;;;36.59;13.27;95972.22;6207090;28;22324;-44
2022/04/24 14:07:14;;;;;;;0.70;0.70;;;;;;;37.42;12.82;95966.03;6207802;28;20286;-45
2022/04/24 14:10:18;;;;;;;0.50;0.50;;;;;;;37.02;12.72;95969.25;6205668;28;20240;-41
2022/04/24 14:13:20;;;;;;;0.65;0.60;;;;;;;37.47;12.95;95974.09;6205406;28;20307;-42
2022/04/24 14:16:22;;;;;;;2.70;0.50;;;;;;;36.16;13.10;95973.16;6205518;28;20251;-43
2022/04/24 14:19:24;;;;;;;0.70;0.40;;;;;;;31.88;16.64;95982.91;6206038;28;20719;-45
2022/04/24 14:22:27;;;;;;;0.40;0.40;;;;;;;29.36;18.71;95982.94;6205667;28;20342;-43
2022/04/24 14:25:29;;;;;;;0.77;0.45;;;;;;;27.47;22.18;95981.16;6204862;28;20605;-42
2022/04/24 14:28:32;;;;;;;0.68;0.60;;;;;;;26.36;24.70;95990.63;6205228;28;20242;-41
2022/04/24 14:31:33;;;;;;;0.95;0.63;;;;;;;25.68;25.16;95980.75;6204635;28;20693;-42